Time;durP1;ratioP1;P1;durP2;ratioP2;P2;SDS_P1;SDS_P2;PMS_P1;PMS_P2;Temp;Humidity;BMP_temperature;BMP_pressure;BME280_temperature;BME280_humidity;BME280_pressure;Samples;Min_cycle;Max_cycle;Signal;HPM_P1;HPM_P2
2022/04/16 00:00:58;;;;;;;15.23;6.75;;;;;;;13.57;57.96;100658.22;5015305;28;20038;-79
2022/04/16 00:03:24;;;;;;;113.47;16.67;;;;;;;13.52;57.83;100660.47;4997766;28;20458;-79
2022/04/16 00:05:55;;;;;;;24.33;7.38;;;;;;;13.50;57.68;100651.66;4981387;28;20522;-80
2022/04/16 00:08:25;;;;;;;27.63;8.43;;;;;;;13.49;57.74;100649.94;4981259;28;20041;-79
2022/04/16 00:10:52;;;;;;;16.05;6.70;;;;;;;13.47;57.60;100646.53;4997194;28;20515;-79
2022/04/16 00:13:19;;;;;;;14.65;5.63;;;;;;;13.47;57.36;100643.84;5015377;28;20053;-80
2022/04/16 00:15:46;;;;;;;17.65;5.75;;;;;;;13.40;57.10;100642.69;4997157;28;20060;-79
2022/04/16 00:18:14;;;;;;;16.50;5.97;;;;;;;13.41;57.11;100647.97;5015362;28;20018;-78
2022/04/16 00:20:40;;;;;;;12.02;5.88;;;;;;;13.37;57.26;100637.59;5014777;28;20122;-79
2022/04/16 00:23:07;;;;;;;26.77;6.32;;;;;;;13.37;57.30;100630.34;5015015;28;20096;-78
2022/04/16 00:25:34;;;;;;;26.58;6.75;;;;;;;13.42;57.11;100632.63;5015142;28;20124;-80
2022/04/16 00:28:04;;;;;;;18.50;6.50;;;;;;;13.39;57.14;100614.00;5014601;28;20506;-79
2022/04/16 00:30:37;;;;;;;11.88;5.78;;;;;;;13.45;56.69;100618.84;5014661;28;20496;-79
2022/04/16 00:33:05;;;;;;;18.23;6.72;;;;;;;13.44;56.58;100620.69;4998089;28;20068;-78
2022/04/16 00:35:31;;;;;;;22.23;5.70;;;;;;;13.39;56.46;100616.69;5019134;28;20053;-79
2022/04/16 00:37:57;;;;;;;17.58;6.07;;;;;;;13.42;56.57;100613.72;5021030;28;20037;-78
2022/04/16 00:40:24;;;;;;;12.00;5.65;;;;;;;13.40;56.52;100608.44;5014485;28;20056;-79
2022/04/16 00:42:52;;;;;;;30.33;6.13;;;;;;;13.39;56.57;100611.31;4981241;28;20034;-79
2022/04/16 00:45:19;;;;;;;13.57;5.47;;;;;;;13.35;56.21;100612.56;4997369;28;20566;-79
2022/04/16 00:47:45;;;;;;;12.48;5.68;;;;;;;13.28;56.12;100600.63;5014634;28;20480;-78
2022/04/16 00:50:11;;;;;;;12.13;5.55;;;;;;;13.27;56.55;100607.03;5014413;28;20029;-79
2022/04/16 00:52:38;;;;;;;23.10;6.95;;;;;;;13.24;56.85;100601.94;4996594;28;20029;-79
2022/04/16 00:55:09;;;;;;;15.27;5.18;;;;;;;13.20;56.65;100601.34;4996744;28;20439;-79
2022/04/16 00:57:40;;;;;;;18.00;6.87;;;;;;;13.20;56.36;100606.75;4997461;28;20038;-79
2022/04/16 01:00:09;;;;;;;15.65;5.25;;;;;;;13.22;56.23;100604.75;4980312;28;20444;-79
2022/04/16 01:02:35;;;;;;;25.63;5.43;;;;;;;13.16;56.83;100594.53;4996450;28;20057;-80
2022/04/16 01:05:04;;;;;;;13.63;5.72;;;;;;;13.19;56.97;100593.38;5014053;28;20033;-80
2022/04/16 01:07:29;;;;;;;14.75;6.15;;;;;;;13.22;56.65;100585.00;5014244;28;20029;-80
2022/04/16 01:09:55;;;;;;;18.02;6.78;;;;;;;13.16;57.34;100580.16;5013645;28;20040;-79
2022/04/16 01:12:20;;;;;;;19.23;6.38;;;;;;;13.16;56.93;100589.13;5014067;28;20079;-78
2022/04/16 01:14:46;;;;;;;14.50;5.43;;;;;;;13.19;56.68;100588.84;5013785;28;20489;-78
2022/04/16 01:17:15;;;;;;;22.30;6.50;;;;;;;13.18;56.60;100575.50;4995974;28;20081;-79
2022/04/16 01:19:42;;;;;;;25.75;6.60;;;;;;;13.22;56.70;100580.44;4995814;28;20412;-79
2022/04/16 01:22:20;;;;;;;17.13;6.90;;;;;;;13.18;57.27;100580.88;5013310;28;20029;-79
2022/04/16 01:24:48;;;;;;;23.55;6.82;;;;;;;13.17;57.03;100582.72;4993203;28;20488;-80
2022/04/16 01:27:17;;;;;;;12.88;6.05;;;;;;;13.22;57.15;100582.28;4995928;28;20026;-79
2022/04/16 01:29:44;;;;;;;16.58;7.68;;;;;;;13.19;57.64;100574.47;5013232;28;20026;-79
2022/04/16 01:32:11;;;;;;;15.80;6.40;;;;;;;13.24;56.89;100574.91;5013408;28;20026;-79
2022/04/16 01:34:37;;;;;;;19.30;8.15;;;;;;;13.21;56.96;100565.22;5013664;28;20025;-77
2022/04/16 01:37:02;;;;;;;24.60;8.40;;;;;;;13.26;57.06;100568.38;5014551;28;20095;-78
2022/04/16 01:39:32;;;;;;;16.88;7.80;;;;;;;13.33;56.87;100574.06;5013416;28;20543;-79
2022/04/16 01:41:58;;;;;;;22.67;7.75;;;;;;;13.31;56.83;100567.91;4995787;28;20037;-78
2022/04/16 01:44:26;;;;;;;17.63;7.88;;;;;;;13.26;56.98;100567.50;5013185;28;20026;-79
2022/04/16 01:46:51;;;;;;;22.23;8.07;;;;;;;13.21;57.39;100562.53;5013368;28;20392;-80
2022/04/16 01:49:20;;;;;;;14.43;6.85;;;;;;;13.21;57.42;100567.09;4995427;28;20117;-80
2022/04/16 01:51:48;;;;;;;19.10;7.50;;;;;;;13.16;57.29;100566.66;5013157;28;20021;-79
2022/04/16 01:54:14;;;;;;;29.17;8.32;;;;;;;13.17;57.56;100573.78;5013237;28;20101;-79
2022/04/16 01:56:40;;;;;;;20.40;7.22;;;;;;;13.08;57.15;100560.13;4995692;28;20029;-79
2022/04/16 01:59:08;;;;;;;20.02;7.53;;;;;;;13.15;57.56;100582.00;5012783;28;20049;-81
2022/04/16 02:01:35;;;;;;;16.58;7.82;;;;;;;13.18;58.05;100578.19;5013442;28;20523;-80
2022/04/16 02:04:02;;;;;;;20.42;8.27;;;;;;;13.12;57.77;100565.25;5012772;28;20026;-79
2022/04/16 02:06:27;;;;;;;11.65;6.47;;;;;;;13.17;57.89;100571.94;5012734;28;20456;-80
2022/04/16 02:08:52;;;;;;;11.55;7.38;;;;;;;13.08;57.79;100570.94;4995057;28;20088;-78
2022/04/16 02:11:18;;;;;;;16.52;7.10;;;;;;;12.97;58.49;100565.63;4995439;28;20432;-80
2022/04/16 02:13:44;;;;;;;16.17;7.05;;;;;;;12.96;58.48;100572.03;5012796;28;20392;-78
2022/04/16 02:16:10;;;;;;;25.88;7.78;;;;;;;12.94;58.59;100582.09;5012757;28;20056;-78
2022/04/16 02:18:36;;;;;;;12.70;6.97;;;;;;;12.88;59.24;100569.19;5012806;28;20441;-79
2022/04/16 02:21:02;;;;;;;15.43;7.28;;;;;;;12.94;58.74;100573.16;4995392;28;20034;-79
2022/04/16 02:23:28;;;;;;;13.38;7.75;;;;;;;12.90;58.75;100571.75;4995419;28;20420;-79
2022/04/16 02:25:54;;;;;;;17.45;7.70;;;;;;;12.85;59.45;100572.16;4995116;28;20030;-79
2022/04/16 02:28:21;;;;;;;30.15;8.93;;;;;;;12.84;59.19;100575.00;5012994;28;20018;-79
2022/04/16 02:30:49;;;;;;;25.75;8.50;;;;;;;12.77;59.83;100571.16;4978921;28;20403;-79
2022/04/16 02:33:15;;;;;;;22.58;8.20;;;;;;;12.76;59.99;100564.03;5012337;28;20507;-79
2022/04/16 02:35:41;;;;;;;20.20;7.82;;;;;;;12.79;59.68;100566.47;5012484;28;20116;-80
2022/04/16 02:38:07;;;;;;;22.65;7.50;;;;;;;12.74;59.70;100571.44;4995032;28;20036;-80
2022/04/16 02:40:33;;;;;;;21.23;7.75;;;;;;;12.63;59.96;100558.91;4994876;28;20038;-79
2022/04/16 02:42:59;;;;;;;27.00;8.30;;;;;;;12.66;59.88;100558.63;5012194;28;20026;-79
2022/04/16 02:48:10;;;;;;;31.75;8.85;;;;;;;12.59;60.07;100560.22;5012453;28;20037;-79
2022/04/16 02:50:35;;;;;;;19.98;8.88;;;;;;;12.53;60.44;100550.81;4994499;28;20018;-78
2022/04/16 02:53:02;;;;;;;31.17;10.10;;;;;;;12.46;60.67;100555.06;5012237;28;20388;-79
2022/04/16 02:55:29;;;;;;;22.52;9.27;;;;;;;12.37;60.99;100546.94;5012063;28;20026;-78
2022/04/16 02:57:55;;;;;;;26.17;9.50;;;;;;;12.28;61.64;100548.63;5012158;28;20616;-79
2022/04/16 03:00:21;;;;;;;28.63;10.38;;;;;;;12.23;61.57;100542.78;5012293;28;20427;-79
2022/04/16 03:02:48;;;;;;;26.67;9.35;;;;;;;12.15;61.66;100544.47;5012379;28;20026;-80
2022/04/16 03:05:13;;;;;;;28.30;9.30;;;;;;;12.07;61.88;100538.91;5012289;28;20084;-79
2022/04/16 03:07:40;;;;;;;30.63;9.48;;;;;;;11.99;61.98;100535.03;4994630;28;20026;-79
2022/04/16 03:10:08;;;;;;;32.70;10.63;;;;;;;12.00;62.31;100544.84;5012040;28;20096;-79
2022/04/16 03:12:47;;;;;;;45.03;10.02;;;;;;;11.94;62.49;100550.78;4994655;28;20088;-78
2022/04/16 03:17:57;;;;;;;36.20;10.88;;;;;;;11.90;63.07;100537.69;5012164;28;20123;-79
2022/04/16 03:20:25;;;;;;;34.33;10.25;;;;;;;11.86;62.59;100542.50;5011894;28;20097;-78
2022/04/16 03:22:51;;;;;;;47.78;12.18;;;;;;;11.85;62.94;100540.81;5012316;28;20026;-80
2022/04/16 03:25:16;;;;;;;38.90;10.93;;;;;;;11.87;63.43;100538.81;5012267;28;20022;-78
2022/04/16 03:27:42;;;;;;;32.10;10.82;;;;;;;11.86;63.29;100541.66;4995275;28;20054;-78
2022/04/16 03:30:09;;;;;;;39.15;11.20;;;;;;;11.91;63.30;100544.81;5012176;28;20022;-78
2022/04/16 03:32:42;;;;;;;38.78;10.90;;;;;;;11.98;63.46;100551.38;5012519;28;20060;-78
2022/04/16 03:35:08;;;;;;;31.13;10.85;;;;;;;11.95;63.13;100557.88;5012653;28;20024;-79
2022/04/16 03:37:35;;;;;;;32.25;11.00;;;;;;;11.91;62.99;100551.06;4994414;28;20033;-79
2022/04/16 03:40:00;;;;;;;49.42;12.52;;;;;;;11.89;63.57;100554.88;5012152;28;20037;-79
2022/04/16 03:42:26;;;;;;;27.63;10.23;;;;;;;11.88;63.91;100551.31;4994359;28;20113;-78
2022/04/16 03:44:54;;;;;;;22.02;10.88;;;;;;;11.86;63.92;100552.44;5011989;28;20032;-79
2022/04/16 03:47:20;;;;;;;44.33;13.90;;;;;;;11.84;63.47;100549.00;5015634;28;20662;-79
2022/04/16 03:49:47;;;;;;;24.98;9.63;;;;;;;11.83;63.92;100555.41;5015312;28;20057;-79
2022/04/16 03:52:13;;;;;;;28.60;10.88;;;;;;;11.83;63.87;100556.25;5015652;28;20456;-78
2022/04/16 04:00:08;;;;;;;40.05;12.40;;;;;;;11.81;64.31;100560.91;5015318;28;20025;-79
2022/04/16 04:02:36;;;;;;;63.42;13.52;;;;;;;11.81;64.69;100560.91;5013812;28;20403;-79
2022/04/16 04:05:04;;;;;;;44.92;13.13;;;;;;;11.85;64.66;100565.06;4997982;28;20033;-78
2022/04/16 04:07:30;;;;;;;35.35;11.52;;;;;;;11.88;64.23;100556.72;5015209;28;20037;-79
2022/04/16 04:09:57;;;;;;;40.33;12.80;;;;;;;11.92;64.50;100568.09;5015353;28;20022;-79
2022/04/16 04:12:22;;;;;;;34.95;12.85;;;;;;;11.94;64.60;100566.09;4965420;28;20038;-78
2022/04/16 04:14:50;;;;;;;48.50;12.85;;;;;;;11.93;64.35;100559.84;5015498;28;20033;-79
2022/04/16 04:17:16;;;;;;;46.50;13.65;;;;;;;12.00;64.45;100577.19;5014827;28;20077;-78
2022/04/16 04:19:43;;;;;;;46.72;14.80;;;;;;;12.03;64.40;100576.06;4997871;28;20456;-78
2022/04/16 04:22:11;;;;;;;44.75;14.43;;;;;;;12.03;64.69;100581.44;4997757;28;20029;-79
2022/04/16 04:24:37;;;;;;;46.58;14.05;;;;;;;12.06;65.35;100574.94;5014287;28;20026;-79
2022/04/16 04:27:06;;;;;;;61.97;15.70;;;;;;;12.06;64.63;100565.00;4997227;28;20049;-80
2022/04/16 04:29:32;;;;;;;52.58;14.93;;;;;;;12.11;64.83;100573.53;5014647;28;20022;-80
2022/04/16 04:31:58;;;;;;;42.35;16.10;;;;;;;12.14;64.40;100570.56;5014666;28;20037;-79
2022/04/16 04:34:24;;;;;;;68.72;15.57;;;;;;;12.20;64.68;100577.28;4997358;28;20030;-79
2022/04/16 04:36:51;;;;;;;62.00;15.73;;;;;;;12.26;64.98;100574.03;5015315;28;20034;-79
2022/04/16 04:39:17;;;;;;;46.40;15.13;;;;;;;12.35;65.08;100575.91;5014740;28;20026;-79
2022/04/16 04:41:43;;;;;;;64.38;15.27;;;;;;;12.41;64.69;100575.34;4997556;28;20021;-79
2022/04/16 04:44:13;;;;;;;67.85;16.92;;;;;;;12.49;64.44;100570.13;4997398;28;20025;-80
2022/04/16 04:46:40;;;;;;;106.78;19.02;;;;;;;12.56;64.66;100573.97;4965074;28;20022;-78
2022/04/16 04:49:11;;;;;;;50.00;15.95;;;;;;;12.65;64.39;100570.44;4996286;28;20148;-78
2022/04/16 04:51:38;;;;;;;55.58;16.48;;;;;;;12.76;64.68;100569.44;5014588;28;20488;-78
2022/04/16 04:54:05;;;;;;;66.00;16.10;;;;;;;12.86;64.55;100571.19;4997288;28;20111;-80
2022/04/16 04:56:31;;;;;;;46.88;15.60;;;;;;;12.93;63.99;100566.06;5013971;28;20109;-78
2022/04/16 04:58:57;;;;;;;44.92;15.25;;;;;;;12.96;63.99;100555.84;4996985;28;20116;-80
2022/04/16 05:01:23;;;;;;;59.00;18.63;;;;;;;13.18;63.80;100575.50;5014570;28;20184;-79
2022/04/16 05:03:50;;;;;;;67.50;15.18;;;;;;;13.21;63.79;100575.19;5014383;28;20492;-79
2022/04/16 05:06:15;;;;;;;49.92;14.15;;;;;;;13.33;63.60;100572.19;5014233;28;20038;-78
2022/04/16 05:08:41;;;;;;;33.83;15.45;;;;;;;13.39;63.73;100581.59;5014376;28;20148;-80
2022/04/16 05:11:06;;;;;;;32.47;14.43;;;;;;;13.42;63.96;100575.91;5013580;28;20052;-80
2022/04/16 05:13:34;;;;;;;32.90;14.48;;;;;;;13.45;64.46;100586.41;5014529;28;20018;-80
2022/04/16 05:16:02;;;;;;;19.45;12.25;;;;;;;13.56;63.87;100580.84;5013913;28;20054;-79
2022/04/16 05:18:27;;;;;;;25.33;12.57;;;;;;;13.66;63.67;100581.69;4997479;28;20116;-78
2022/04/16 05:20:52;;;;;;;21.77;12.73;;;;;;;13.70;63.91;100574.97;5013210;28;20082;-79
2022/04/16 05:23:21;;;;;;;35.30;15.30;;;;;;;13.84;63.83;100588.03;5013857;28;20026;-81
2022/04/16 05:25:46;;;;;;;36.15;15.43;;;;;;;13.91;63.69;100580.19;4997016;28;20026;-79
2022/04/16 05:28:13;;;;;;;38.72;18.15;;;;;;;13.94;63.21;100585.31;4996420;28;20361;-80
2022/04/16 05:30:48;;;;;;;40.47;18.38;;;;;;;13.91;63.43;100585.59;5014103;28;20030;-80
2022/04/16 05:36:02;;;;;;;42.70;21.45;;;;;;;14.13;62.16;100601.44;5013985;28;20048;-80
2022/04/16 05:38:28;;;;;;;39.55;18.98;;;;;;;14.18;61.84;100599.16;5013034;28;20029;-78
2022/04/16 05:40:54;;;;;;;42.45;19.17;;;;;;;14.25;61.70;100604.84;5013562;28;20025;-82
2022/04/16 05:43:20;;;;;;;44.53;21.23;;;;;;;14.38;61.15;100589.13;4996400;28;20400;-79
2022/04/16 05:45:47;;;;;;;67.60;23.20;;;;;;;14.42;60.87;100585.13;4997807;28;20030;-88
2022/04/16 05:48:12;;;;;;;157.80;32.33;;;;;;;14.57;60.58;100587.19;5012972;28;20508;-78
2022/04/16 05:50:39;;;;;;;45.33;22.92;;;;;;;14.67;60.04;100589.81;5012949;28;20534;-76
2022/04/16 05:53:08;;;;;;;62.28;23.65;;;;;;;14.79;59.78;100594.03;5012160;28;20471;-77
2022/04/16 05:55:34;;;;;;;61.67;26.45;;;;;;;14.90;59.66;100593.78;4995144;28;20088;-78
2022/04/16 05:58:00;;;;;;;51.55;26.38;;;;;;;15.01;59.32;100593.59;4995041;28;20052;-78
2022/04/16 06:00:26;;;;;;;56.33;25.05;;;;;;;15.12;58.64;100601.47;4994460;28;20415;-76
2022/04/16 06:02:51;;;;;;;52.40;25.65;;;;;;;15.22;58.39;100596.84;5012035;28;20495;-77
2022/04/16 06:05:17;;;;;;;78.40;29.55;;;;;;;15.34;58.28;100596.59;4994307;28;20512;-77
2022/04/16 06:07:44;;;;;;;74.85;32.22;;;;;;;15.43;57.87;100592.94;5011242;28;20109;-77
2022/04/16 06:10:10;;;;;;;76.60;30.48;;;;;;;15.51;57.67;100595.75;4994443;28;20037;-77
2022/04/16 06:12:36;;;;;;;53.90;25.05;;;;;;;15.58;57.77;100588.69;4994255;28;20033;-77
2022/04/16 06:15:01;;;;;;;67.25;23.50;;;;;;;15.68;57.43;100592.16;5011836;28;20407;-77
2022/04/16 06:17:26;;;;;;;65.35;31.60;;;;;;;15.81;57.02;100592.56;4977335;28;20504;-77
2022/04/16 06:19:53;;;;;;;74.13;31.98;;;;;;;15.89;56.75;100579.09;4992669;28;20127;-77
2022/04/16 06:22:19;;;;;;;62.17;31.52;;;;;;;15.92;56.32;100573.34;4993900;28;20034;-77
2022/04/16 06:24:45;;;;;;;62.92;26.92;;;;;;;16.09;56.35;100588.69;5011129;28;20036;-78
2022/04/16 06:27:12;;;;;;;64.80;25.65;;;;;;;16.15;55.60;100581.75;4993782;28;20037;-76
2022/04/16 06:29:38;;;;;;;69.22;24.92;;;;;;;16.20;55.55;100580.28;4994619;28;20022;-78
2022/04/16 06:32:05;;;;;;;63.35;24.63;;;;;;;16.29;55.32;100575.75;5010689;28;20040;-78
2022/04/16 06:34:30;;;;;;;79.82;24.40;;;;;;;16.34;55.36;100574.22;4993835;28;20034;-77
2022/04/16 06:36:56;;;;;;;60.00;26.15;;;;;;;16.53;55.13;100572.28;5011122;28;20041;-76
2022/04/16 06:39:21;;;;;;;48.25;23.75;;;;;;;16.57;54.68;100568.25;5011202;28;20065;-76
2022/04/16 06:41:47;;;;;;;52.92;22.83;;;;;;;16.75;54.39;100571.69;5011005;28;20088;-77
2022/04/16 06:44:12;;;;;;;45.88;22.00;;;;;;;16.93;53.90;100569.69;4977500;28;20034;-77
2022/04/16 06:46:38;;;;;;;49.67;19.40;;;;;;;16.99;53.55;100569.03;5011095;28;20026;-79
2022/04/16 06:49:05;;;;;;;42.67;18.95;;;;;;;17.12;52.91;100553.09;4993765;28;20807;-77
2022/04/16 06:51:32;;;;;;;44.30;16.90;;;;;;;17.32;52.56;100559.88;5011300;28;20103;-77
2022/04/16 06:54:00;;;;;;;55.95;18.02;;;;;;;17.27;51.86;100545.97;5010963;28;20030;-78
2022/04/16 06:56:35;;;;;;;43.90;16.55;;;;;;;17.53;51.05;100563.94;4995242;28;20555;-77
2022/04/16 06:59:01;;;;;;;60.65;18.13;;;;;;;17.50;50.73;100535.22;5013927;28;20038;-76
2022/04/16 07:01:27;;;;;;;38.83;15.98;;;;;;;17.82;50.20;100553.41;4993763;28;20477;-76
2022/04/16 07:03:52;;;;;;;27.27;13.80;;;;;;;17.90;49.22;100554.25;5011165;28;20025;-76
2022/04/16 07:06:19;;;;;;;40.60;14.25;;;;;;;18.05;48.83;100557.09;4993813;28;20038;-77
2022/04/16 07:08:45;;;;;;;37.38;15.73;;;;;;;18.17;48.96;100558.41;4993944;28;20380;-77
2022/04/16 07:11:11;;;;;;;37.03;13.73;;;;;;;18.26;48.62;100541.03;5011105;28;20437;-76
2022/04/16 07:13:39;;;;;;;25.10;12.20;;;;;;;18.47;48.38;100543.97;5011206;28;20053;-77
2022/04/16 07:16:05;;;;;;;30.45;11.13;;;;;;;18.54;47.55;100546.03;4992960;28;20085;-77
2022/04/16 07:18:30;;;;;;;25.05;9.00;;;;;;;18.63;47.25;100540.38;4993413;28;20029;-79
2022/04/16 07:20:56;;;;;;;34.95;9.30;;;;;;;18.75;47.33;100548.97;5013970;28;20455;-76
2022/04/16 07:23:21;;;;;;;25.98;9.63;;;;;;;18.82;47.20;100547.25;5014013;28;20025;-76
2022/04/16 07:25:47;;;;;;;36.58;10.05;;;;;;;18.91;46.83;100549.75;4996418;28;20137;-76
2022/04/16 07:28:21;;;;;;;25.00;9.25;;;;;;;19.00;46.70;100547.78;5014442;28;20022;-77
2022/04/16 07:30:52;;;;;;;31.63;9.35;;;;;;;19.01;46.74;100550.34;5014374;28;20539;-77
2022/04/16 07:33:18;;;;;;;28.83;9.27;;;;;;;19.06;47.03;100541.63;4980733;28;20113;-77
2022/04/16 07:35:45;;;;;;;34.60;10.15;;;;;;;19.15;46.92;100556.88;5014585;28;20041;-76
2022/04/16 07:38:11;;;;;;;28.40;10.07;;;;;;;19.18;46.69;100533.84;5014695;28;20030;-76
2022/04/16 07:40:36;;;;;;;36.90;9.73;;;;;;;19.25;46.57;100540.28;5013994;28;20500;-77
2022/04/16 07:43:02;;;;;;;35.67;10.27;;;;;;;19.29;46.75;100542.47;5013998;28;20022;-77
2022/04/16 07:45:29;;;;;;;29.58;9.90;;;;;;;19.28;46.53;100531.75;4995971;28;20025;-77
2022/04/16 07:47:58;;;;;;;22.35;9.43;;;;;;;19.28;46.40;100529.88;5013842;28;20100;-76
2022/04/16 07:50:23;;;;;;;31.52;9.88;;;;;;;19.36;46.44;100531.66;4996529;28;20030;-77
2022/04/16 07:52:49;;;;;;;26.27;9.27;;;;;;;19.50;46.40;100536.34;5013528;28;20105;-76
2022/04/16 07:55:16;;;;;;;26.05;8.75;;;;;;;19.58;46.57;100529.97;5013546;28;20041;-77
2022/04/16 07:57:42;;;;;;;37.70;10.02;;;;;;;19.74;46.16;100529.81;4995978;28;20108;-77
2022/04/16 08:00:10;;;;;;;23.85;9.13;;;;;;;19.84;45.72;100533.97;4996314;28;20018;-77
2022/04/16 08:02:35;;;;;;;29.20;9.27;;;;;;;19.96;45.74;100539.81;5013783;28;20029;-77
2022/04/16 08:05:01;;;;;;;35.22;9.60;;;;;;;20.04;45.19;100536.97;5013492;28;20105;-77
2022/04/16 08:07:27;;;;;;;20.60;9.23;;;;;;;20.08;45.10;100527.38;4979404;28;20384;-77
2022/04/16 08:09:52;;;;;;;31.55;9.75;;;;;;;20.30;45.42;100525.63;5013615;28;20025;-78
2022/04/16 08:12:18;;;;;;;23.52;9.07;;;;;;;20.47;44.68;100527.09;5013415;28;20034;-78
2022/04/16 08:14:43;;;;;;;31.77;8.73;;;;;;;20.60;44.36;100517.19;5013227;28;20026;-78
2022/04/16 08:17:09;;;;;;;41.33;8.27;;;;;;;20.84;44.01;100528.78;4995525;28;20128;-78
2022/04/16 08:19:35;;;;;;;25.55;8.48;;;;;;;20.94;43.30;100515.66;5013485;28;20105;-78
2022/04/16 08:22:06;;;;;;;23.20;7.72;;;;;;;20.89;42.85;100516.22;5012304;28;20065;-79
2022/04/16 08:24:41;;;;;;;24.55;8.40;;;;;;;21.09;42.79;100516.47;5013586;28;20022;-77
2022/04/16 08:27:07;;;;;;;21.00;9.05;;;;;;;21.32;42.46;100516.25;4997392;28;20029;-77
2022/04/16 08:29:37;;;;;;;16.02;7.40;;;;;;;21.49;41.68;100507.59;5012007;28;20345;-77
2022/04/16 08:32:05;;;;;;;19.73;8.00;;;;;;;21.45;41.44;100483.53;5013013;28;20022;-76
2022/04/16 08:34:32;;;;;;;21.75;9.25;;;;;;;21.47;42.20;100490.50;5013124;28;20033;-76
2022/04/16 08:36:57;;;;;;;19.70;10.68;;;;;;;21.59;41.83;100497.13;5013260;28;20400;-77
2022/04/16 08:39:22;;;;;;;27.63;9.90;;;;;;;21.53;42.51;100495.19;4979641;28;20033;-78
2022/04/16 08:41:49;;;;;;;30.20;10.18;;;;;;;21.37;43.43;100487.28;5013242;28;20018;-77
2022/04/16 08:44:19;;;;;;;28.70;9.23;;;;;;;21.44;43.42;100488.16;5013657;28;20484;-78
2022/04/16 08:46:44;;;;;;;21.02;9.77;;;;;;;21.56;43.64;100486.56;4980092;28;20457;-77
2022/04/16 08:49:10;;;;;;;24.27;9.13;;;;;;;21.52;43.88;100490.78;4995351;28;20239;-77
2022/04/16 08:51:35;;;;;;;24.05;9.77;;;;;;;21.20;44.21;100480.38;4995194;28;20033;-78
2022/04/16 08:54:01;;;;;;;33.58;11.60;;;;;;;21.01;44.62;100486.47;4995580;28;20503;-78
2022/04/16 08:56:27;;;;;;;31.15;11.27;;;;;;;20.79;44.31;100484.81;5012952;28;20026;-77
2022/04/16 08:58:53;;;;;;;32.20;11.15;;;;;;;20.52;45.09;100481.75;4995469;28;20083;-77
2022/04/16 09:01:18;;;;;;;27.88;9.38;;;;;;;20.40;45.94;100466.03;4995786;28;20409;-77
2022/04/16 09:03:50;;;;;;;23.10;10.20;;;;;;;20.26;46.74;100480.59;5012555;28;20507;-78
2022/04/16 09:06:24;;;;;;;22.20;9.80;;;;;;;20.21;47.75;100489.34;4994376;28;20111;-78
2022/04/16 09:08:50;;;;;;;25.85;9.52;;;;;;;20.05;47.69;100484.94;5010531;28;20037;-79
2022/04/16 09:11:24;;;;;;;30.40;10.43;;;;;;;19.72;48.64;100486.34;4995267;28;20026;-77
2022/04/16 09:13:49;;;;;;;22.48;9.13;;;;;;;19.61;49.48;100475.88;5012324;28;20018;-77
2022/04/16 09:16:16;;;;;;;25.67;9.10;;;;;;;19.67;49.32;100468.81;5011892;28;20131;-77
2022/04/16 09:18:55;;;;;;;20.65;8.98;;;;;;;19.72;49.31;100478.16;4994831;28;20481;-78
2022/04/16 09:21:26;;;;;;;31.35;8.88;;;;;;;19.69;49.63;100474.94;5012273;28;20030;-77
2022/04/16 09:23:59;;;;;;;24.02;8.43;;;;;;;19.74;49.92;100470.63;4994098;28;20465;-78
2022/04/16 09:26:32;;;;;;;27.27;9.20;;;;;;;19.59;50.33;100466.19;4994356;28;20486;-76
2022/04/16 09:29:12;;;;;;;23.45;9.30;;;;;;;19.39;51.50;100474.91;5012426;28;20085;-77
2022/04/16 09:31:39;;;;;;;31.77;9.18;;;;;;;19.32;50.92;100479.38;5011881;28;20448;-78
2022/04/16 09:34:19;;;;;;;29.38;9.48;;;;;;;19.24;51.47;100473.13;5011500;28;20050;-77
2022/04/16 09:36:46;;;;;;;34.38;9.45;;;;;;;19.20;52.21;100471.81;5012054;28;20034;-77
2022/04/16 09:39:14;;;;;;;22.40;8.43;;;;;;;19.43;52.45;100468.03;4994188;28;20038;-78
2022/04/16 09:41:41;;;;;;;25.13;8.23;;;;;;;19.41;52.13;100459.22;4978302;28;20130;-77
2022/04/16 09:44:23;;;;;;;20.50;8.50;;;;;;;19.40;52.40;100453.94;4993661;28;20026;-77
2022/04/16 09:46:49;;;;;;;28.57;8.33;;;;;;;19.34;52.62;100455.50;5011649;28;20094;-77
2022/04/16 09:49:16;;;;;;;25.17;10.18;;;;;;;19.50;52.20;100469.00;5011676;28;20337;-77
2022/04/16 09:51:44;;;;;;;24.95;8.02;;;;;;;19.52;52.05;100469.66;5012637;28;20026;-77
2022/04/16 09:54:10;;;;;;;17.15;8.45;;;;;;;19.27;52.69;100459.97;5019420;28;20029;-78
2022/04/16 09:56:39;;;;;;;20.15;8.75;;;;;;;19.20;52.96;100461.78;4998146;28;20065;-78
2022/04/16 09:59:08;;;;;;;19.67;8.05;;;;;;;19.24;53.39;100446.72;5013453;28;20068;-77
2022/04/16 10:01:35;;;;;;;18.70;7.75;;;;;;;19.32;53.46;100443.94;5010506;28;20041;-77
2022/04/16 10:04:01;;;;;;;28.90;8.30;;;;;;;19.47;53.08;100442.09;5011055;28;20041;-77
2022/04/16 10:06:29;;;;;;;28.02;8.18;;;;;;;19.62;53.24;100452.16;5011733;28;20084;-79
2022/04/16 10:08:55;;;;;;;26.35;8.50;;;;;;;19.69;52.71;100444.94;5010613;28;20064;-78
2022/04/16 10:14:22;;;;;;;26.60;7.25;;;;;;;19.73;52.76;100446.22;5011600;28;20048;-78
2022/04/16 10:17:06;;;;;;;25.65;7.15;;;;;;;19.85;52.85;100452.91;5011243;28;20125;-77
2022/04/16 10:19:44;;;;;;;22.75;8.95;;;;;;;19.87;52.49;100448.97;5012141;28;20042;-77
2022/04/16 10:22:24;;;;;;;22.02;7.63;;;;;;;19.73;52.99;100444.34;5011582;28;20033;-77
2022/04/16 10:24:53;;;;;;;31.30;8.20;;;;;;;19.82;52.78;100450.56;4994398;28;20165;-77
2022/04/16 10:27:38;;;;;;;24.17;9.00;;;;;;;20.20;52.10;100460.31;5011209;28;20025;-76
2022/04/16 10:30:11;;;;;;;26.23;7.22;;;;;;;20.03;51.25;100453.38;4993322;28;20040;-78
2022/04/16 10:32:43;;;;;;;22.38;7.65;;;;;;;19.95;51.16;100446.13;4993784;28;20400;-78
2022/04/16 10:35:17;;;;;;;18.65;8.00;;;;;;;19.92;51.45;100442.94;4993696;28;20503;-76
2022/04/16 10:37:45;;;;;;;24.73;7.93;;;;;;;20.10;51.14;100448.84;5010600;28;20034;-81
2022/04/16 10:40:23;;;;;;;31.10;8.75;;;;;;;19.98;51.19;100434.00;4994470;28;20025;-78
2022/04/16 10:42:59;;;;;;;39.97;8.07;;;;;;;19.93;51.67;100444.66;5011139;28;20030;-76
2022/04/16 10:45:25;;;;;;;32.03;9.20;;;;;;;20.19;51.79;100450.44;4993642;28;20170;-77
2022/04/16 10:47:54;;;;;;;30.92;8.32;;;;;;;20.27;50.42;100461.31;5011243;28;20531;-77
2022/04/16 10:50:21;;;;;;;17.27;7.72;;;;;;;20.27;50.09;100464.03;5011179;28;20137;-77
2022/04/16 10:52:57;;;;;;;23.58;7.50;;;;;;;20.09;50.75;100463.53;4992704;28;20046;-77
2022/04/16 10:55:36;;;;;;;18.15;7.15;;;;;;;20.18;50.99;100462.41;4996149;28;20040;-78
2022/04/16 10:58:11;;;;;;;30.17;7.68;;;;;;;20.46;50.74;100460.66;4998786;28;20038;-77
2022/04/16 11:00:45;;;;;;;17.00;7.68;;;;;;;20.40;50.45;100457.84;4997471;28;20026;-78
2022/04/16 11:03:12;;;;;;;16.65;6.05;;;;;;;20.13;51.16;100459.38;4998456;28;20034;-78
2022/04/16 11:05:43;;;;;;;22.17;6.93;;;;;;;20.19;52.09;100464.09;5014688;28;20041;-76
2022/04/16 11:08:11;;;;;;;23.58;5.72;;;;;;;20.17;51.98;100473.50;5015234;28;20058;-77
2022/04/16 11:10:38;;;;;;;14.50;6.30;;;;;;;19.97;52.55;100470.50;4998557;28;20064;-80
2022/04/16 11:13:05;;;;;;;22.85;7.15;;;;;;;19.74;53.60;100473.34;5014748;28;20029;-81
2022/04/16 11:15:30;;;;;;;13.85;5.65;;;;;;;19.84;53.99;100475.81;4980344;28;20050;-79
2022/04/16 11:17:58;;;;;;;16.30;5.82;;;;;;;19.63;53.76;100472.97;5014556;28;20056;-78
2022/04/16 11:20:26;;;;;;;26.95;8.35;;;;;;;19.64;53.91;100466.47;5012103;28;20021;-80
2022/04/16 11:22:52;;;;;;;23.27;7.45;;;;;;;19.80;53.65;100466.28;4997206;28;20396;-78
2022/04/16 11:25:23;;;;;;;20.15;6.80;;;;;;;20.01;52.85;100471.84;5014958;28;20026;-77
2022/04/16 11:36:11;;;;;;;52.80;10.95;;;;;;;20.06;51.94;100461.19;5015367;28;20044;-79
2022/04/16 11:38:41;;;;;;;26.70;9.68;;;;;;;20.16;51.98;100461.75;5014344;28;20041;-81
2022/04/16 11:41:13;;;;;;;17.02;6.75;;;;;;;20.18;51.95;100451.50;5015209;28;20022;-80